sensor_id;sensor_type;location;lat;lon;timestamp;P1;durP1;ratioP1;P2;durP2;ratioP2
12005;SDS011;6062;47.294;12.182;2023-03-24T00:00:57;8.05;;;5.55;;
12005;SDS011;6062;47.294;12.182;2023-03-24T00:03:25;7.22;;;5.80;;
12005;SDS011;6062;47.294;12.182;2023-03-24T00:06:03;8.07;;;6.35;;
12005;SDS011;6062;47.294;12.182;2023-03-24T00:08:31;7.70;;;5.90;;
12005;SDS011;6062;47.294;12.182;2023-03-24T00:11:00;8.50;;;5.93;;
12005;SDS011;6062;47.294;12.182;2023-03-24T00:13:30;7.75;;;6.70;;
12005;SDS011;6062;47.294;12.182;2023-03-24T00:16:02;7.82;;;6.38;;
12005;SDS011;6062;47.294;12.182;2023-03-24T00:18:32;9.02;;;6.60;;
12005;SDS011;6062;47.294;12.182;2023-03-24T00:20:58;8.07;;;6.10;;
12005;SDS011;6062;47.294;12.182;2023-03-24T00:23:25;8.25;;;6.50;;
12005;SDS011;6062;47.294;12.182;2023-03-24T00:26:06;8.73;;;6.78;;
12005;SDS011;6062;47.294;12.182;2023-03-24T00:28:39;8.35;;;6.63;;
12005;SDS011;6062;47.294;12.182;2023-03-24T00:31:07;8.50;;;6.60;;
12005;SDS011;6062;47.294;12.182;2023-03-24T00:33:35;10.05;;;7.40;;
12005;SDS011;6062;47.294;12.182;2023-03-24T00:36:02;10.07;;;7.03;;
12005;SDS011;6062;47.294;12.182;2023-03-24T00:38:31;10.38;;;7.05;;
12005;SDS011;6062;47.294;12.182;2023-03-24T00:40:58;8.52;;;6.57;;
12005;SDS011;6062;47.294;12.182;2023-03-24T00:43:25;9.07;;;7.20;;
12005;SDS011;6062;47.294;12.182;2023-03-24T00:45:57;7.78;;;6.32;;
12005;SDS011;6062;47.294;12.182;2023-03-24T00:48:26;9.55;;;7.43;;
12005;SDS011;6062;47.294;12.182;2023-03-24T00:50:53;9.30;;;7.40;;
12005;SDS011;6062;47.294;12.182;2023-03-24T00:53:19;8.65;;;6.65;;
12005;SDS011;6062;47.294;12.182;2023-03-24T00:55:47;9.88;;;6.63;;
12005;SDS011;6062;47.294;12.182;2023-03-24T00:58:14;8.80;;;6.50;;
12005;SDS011;6062;47.294;12.182;2023-03-24T01:00:44;9.85;;;6.75;;
12005;SDS011;6062;47.294;12.182;2023-03-24T01:03:11;9.35;;;6.47;;
12005;SDS011;6062;47.294;12.182;2023-03-24T01:05:38;9.73;;;7.32;;
12005;SDS011;6062;47.294;12.182;2023-03-24T01:08:06;7.43;;;6.18;;
12005;SDS011;6062;47.294;12.182;2023-03-24T01:10:35;10.15;;;6.80;;
12005;SDS011;6062;47.294;12.182;2023-03-24T01:13:15;9.50;;;6.85;;
12005;SDS011;6062;47.294;12.182;2023-03-24T01:15:42;6.88;;;6.03;;
12005;SDS011;6062;47.294;12.182;2023-03-24T01:18:09;8.68;;;6.75;;
12005;SDS011;6062;47.294;12.182;2023-03-24T01:20:38;9.20;;;6.68;;
12005;SDS011;6062;47.294;12.182;2023-03-24T01:23:05;8.73;;;6.57;;
12005;SDS011;6062;47.294;12.182;2023-03-24T01:25:32;7.78;;;6.13;;
12005;SDS011;6062;47.294;12.182;2023-03-24T01:28:01;9.05;;;7.45;;
12005;SDS011;6062;47.294;12.182;2023-03-24T01:30:27;8.32;;;6.50;;
12005;SDS011;6062;47.294;12.182;2023-03-24T01:32:55;7.40;;;6.30;;
12005;SDS011;6062;47.294;12.182;2023-03-24T01:35:24;9.38;;;6.63;;
12005;SDS011;6062;47.294;12.182;2023-03-24T01:37:51;10.05;;;7.35;;
12005;SDS011;6062;47.294;12.182;2023-03-24T01:40:18;8.98;;;6.72;;
12005;SDS011;6062;47.294;12.182;2023-03-24T01:42:48;7.80;;;6.38;;
12005;SDS011;6062;47.294;12.182;2023-03-24T01:48:04;8.85;;;7.07;;
12005;SDS011;6062;47.294;12.182;2023-03-24T01:50:37;9.90;;;7.25;;
12005;SDS011;6062;47.294;12.182;2023-03-24T01:53:06;9.02;;;7.15;;
12005;SDS011;6062;47.294;12.182;2023-03-24T01:55:32;9.65;;;7.00;;
12005;SDS011;6062;47.294;12.182;2023-03-24T01:57:59;11.32;;;7.78;;
12005;SDS011;6062;47.294;12.182;2023-03-24T02:00:27;9.68;;;7.22;;
12005;SDS011;6062;47.294;12.182;2023-03-24T02:02:58;10.40;;;7.20;;
12005;SDS011;6062;47.294;12.182;2023-03-24T02:05:32;10.07;;;7.47;;
12005;SDS011;6062;47.294;12.182;2023-03-24T02:08:10;9.35;;;7.00;;
12005;SDS011;6062;47.294;12.182;2023-03-24T02:10:49;10.27;;;7.60;;
12005;SDS011;6062;47.294;12.182;2023-03-24T02:13:19;10.48;;;7.50;;
12005;SDS011;6062;47.294;12.182;2023-03-24T02:18:25;9.23;;;7.50;;
12005;SDS011;6062;47.294;12.182;2023-03-24T02:30:15;9.75;;;7.70;;
12005;SDS011;6062;47.294;12.182;2023-03-24T02:33:17;10.27;;;7.55;;
12005;SDS011;6062;47.294;12.182;2023-03-24T02:39:56;10.48;;;6.85;;
12005;SDS011;6062;47.294;12.182;2023-03-24T02:46:01;9.60;;;7.57;;
12005;SDS011;6062;47.294;12.182;2023-03-24T02:51:16;10.75;;;7.35;;
12005;SDS011;6062;47.294;12.182;2023-03-24T02:54:46;10.82;;;7.45;;
12005;SDS011;6062;47.294;12.182;2023-03-24T03:00:32;10.02;;;7.90;;
12005;SDS011;6062;47.294;12.182;2023-03-24T03:03:20;10.40;;;7.95;;
12005;SDS011;6062;47.294;12.182;2023-03-24T03:06:05;9.70;;;7.68;;
12005;SDS011;6062;47.294;12.182;2023-03-24T03:08:41;11.13;;;8.07;;
12005;SDS011;6062;47.294;12.182;2023-03-24T03:11:12;10.90;;;8.60;;
12005;SDS011;6062;47.294;12.182;2023-03-24T03:13:42;10.57;;;8.02;;
12005;SDS011;6062;47.294;12.182;2023-03-24T03:16:30;14.70;;;8.50;;
12005;SDS011;6062;47.294;12.182;2023-03-24T03:19:15;12.00;;;8.25;;
12005;SDS011;6062;47.294;12.182;2023-03-24T03:21:46;14.00;;;8.23;;
12005;SDS011;6062;47.294;12.182;2023-03-24T03:24:19;12.13;;;9.00;;
12005;SDS011;6062;47.294;12.182;2023-03-24T03:26:56;11.55;;;8.98;;
12005;SDS011;6062;47.294;12.182;2023-03-24T03:29:31;10.75;;;8.15;;
12005;SDS011;6062;47.294;12.182;2023-03-24T03:32:03;14.20;;;8.90;;
12005;SDS011;6062;47.294;12.182;2023-03-24T03:34:45;12.05;;;8.40;;
12005;SDS011;6062;47.294;12.182;2023-03-24T03:37:41;11.32;;;8.25;;
12005;SDS011;6062;47.294;12.182;2023-03-24T03:40:19;9.57;;;7.40;;
12005;SDS011;6062;47.294;12.182;2023-03-24T03:42:58;10.10;;;8.13;;
12005;SDS011;6062;47.294;12.182;2023-03-24T03:45:24;15.32;;;8.93;;
12005;SDS011;6062;47.294;12.182;2023-03-24T03:47:50;11.02;;;8.68;;
12005;SDS011;6062;47.294;12.182;2023-03-24T03:50:17;12.48;;;8.60;;
12005;SDS011;6062;47.294;12.182;2023-03-24T03:52:43;11.02;;;9.15;;
12005;SDS011;6062;47.294;12.182;2023-03-24T03:55:09;11.30;;;8.10;;
12005;SDS011;6062;47.294;12.182;2023-03-24T03:57:36;11.88;;;8.88;;
12005;SDS011;6062;47.294;12.182;2023-03-24T04:00:03;12.07;;;8.50;;
12005;SDS011;6062;47.294;12.182;2023-03-24T04:02:46;10.93;;;9.15;;
12005;SDS011;6062;47.294;12.182;2023-03-24T04:05:34;11.32;;;8.35;;
12005;SDS011;6062;47.294;12.182;2023-03-24T04:08:20;11.88;;;8.55;;
12005;SDS011;6062;47.294;12.182;2023-03-24T04:11:02;11.02;;;8.75;;
12005;SDS011;6062;47.294;12.182;2023-03-24T04:20:21;10.63;;;8.45;;
12005;SDS011;6062;47.294;12.182;2023-03-24T04:32:08;10.23;;;7.82;;
12005;SDS011;6062;47.294;12.182;2023-03-24T04:34:45;10.48;;;7.68;;
12005;SDS011;6062;47.294;12.182;2023-03-24T04:37:22;9.43;;;7.60;;
12005;SDS011;6062;47.294;12.182;2023-03-24T04:39:52;9.30;;;7.90;;
12005;SDS011;6062;47.294;12.182;2023-03-24T04:42:24;11.30;;;7.93;;
12005;SDS011;6062;47.294;12.182;2023-03-24T04:45:12;11.23;;;8.15;;
12005;SDS011;6062;47.294;12.182;2023-03-24T04:47:42;9.88;;;7.53;;
12005;SDS011;6062;47.294;12.182;2023-03-24T04:50:16;9.38;;;7.63;;
12005;SDS011;6062;47.294;12.182;2023-03-24T04:53:05;9.15;;;7.35;;
12005;SDS011;6062;47.294;12.182;2023-03-24T04:58:14;10.50;;;7.90;;
12005;SDS011;6062;47.294;12.182;2023-03-24T05:00:41;11.45;;;7.80;;
12005;SDS011;6062;47.294;12.182;2023-03-24T05:03:08;11.07;;;7.28;;
12005;SDS011;6062;47.294;12.182;2023-03-24T05:05:41;11.13;;;7.47;;
12005;SDS011;6062;47.294;12.182;2023-03-24T05:08:09;10.93;;;8.55;;
12005;SDS011;6062;47.294;12.182;2023-03-24T05:10:35;10.05;;;7.32;;
12005;SDS011;6062;47.294;12.182;2023-03-24T05:13:02;10.95;;;8.38;;
12005;SDS011;6062;47.294;12.182;2023-03-24T05:15:31;10.77;;;7.63;;
12005;SDS011;6062;47.294;12.182;2023-03-24T05:17:57;10.35;;;7.55;;
12005;SDS011;6062;47.294;12.182;2023-03-24T05:20:23;11.18;;;7.90;;
12005;SDS011;6062;47.294;12.182;2023-03-24T05:22:50;11.85;;;8.52;;
12005;SDS011;6062;47.294;12.182;2023-03-24T05:25:16;10.25;;;7.63;;
12005;SDS011;6062;47.294;12.182;2023-03-24T05:27:42;10.60;;;8.00;;
12005;SDS011;6062;47.294;12.182;2023-03-24T05:30:08;11.65;;;8.38;;
12005;SDS011;6062;47.294;12.182;2023-03-24T05:32:34;10.07;;;7.65;;
12005;SDS011;6062;47.294;12.182;2023-03-24T05:35:00;9.82;;;7.40;;
12005;SDS011;6062;47.294;12.182;2023-03-24T05:37:26;10.25;;;7.88;;
12005;SDS011;6062;47.294;12.182;2023-03-24T05:39:52;9.80;;;7.38;;
12005;SDS011;6062;47.294;12.182;2023-03-24T05:42:18;10.60;;;7.78;;
12005;SDS011;6062;47.294;12.182;2023-03-24T05:44:45;10.45;;;7.70;;
12005;SDS011;6062;47.294;12.182;2023-03-24T05:47:11;9.27;;;6.72;;
12005;SDS011;6062;47.294;12.182;2023-03-24T05:49:43;10.50;;;7.13;;
12005;SDS011;6062;47.294;12.182;2023-03-24T05:52:10;11.00;;;7.35;;
12005;SDS011;6062;47.294;12.182;2023-03-24T05:54:38;9.80;;;7.47;;
12005;SDS011;6062;47.294;12.182;2023-03-24T05:57:05;10.80;;;7.60;;
12005;SDS011;6062;47.294;12.182;2023-03-24T05:59:34;11.73;;;8.00;;
12005;SDS011;6062;47.294;12.182;2023-03-24T06:02:00;10.75;;;7.53;;
12005;SDS011;6062;47.294;12.182;2023-03-24T06:04:26;10.57;;;7.95;;
12005;SDS011;6062;47.294;12.182;2023-03-24T06:06:57;8.82;;;7.30;;
12005;SDS011;6062;47.294;12.182;2023-03-24T06:09:24;10.13;;;7.57;;
12005;SDS011;6062;47.294;12.182;2023-03-24T06:11:57;9.60;;;7.43;;
12005;SDS011;6062;47.294;12.182;2023-03-24T06:14:24;10.18;;;7.30;;
12005;SDS011;6062;47.294;12.182;2023-03-24T06:16:50;9.52;;;7.07;;
12005;SDS011;6062;47.294;12.182;2023-03-24T06:19:16;8.68;;;7.13;;
12005;SDS011;6062;47.294;12.182;2023-03-24T06:21:46;8.23;;;6.72;;
12005;SDS011;6062;47.294;12.182;2023-03-24T06:24:14;9.13;;;7.22;;
12005;SDS011;6062;47.294;12.182;2023-03-24T06:26:41;10.40;;;7.25;;
12005;SDS011;6062;47.294;12.182;2023-03-24T06:29:08;9.38;;;6.70;;
12005;SDS011;6062;47.294;12.182;2023-03-24T06:31:36;9.55;;;6.72;;
12005;SDS011;6062;47.294;12.182;2023-03-24T06:34:03;9.10;;;6.97;;
12005;SDS011;6062;47.294;12.182;2023-03-24T06:36:30;9.73;;;7.53;;
12005;SDS011;6062;47.294;12.182;2023-03-24T06:38:58;8.55;;;6.63;;
12005;SDS011;6062;47.294;12.182;2023-03-24T06:41:26;9.75;;;7.47;;
12005;SDS011;6062;47.294;12.182;2023-03-24T06:43:52;8.48;;;7.35;;
12005;SDS011;6062;47.294;12.182;2023-03-24T06:46:18;8.65;;;7.03;;
12005;SDS011;6062;47.294;12.182;2023-03-24T06:48:43;8.52;;;6.90;;
12005;SDS011;6062;47.294;12.182;2023-03-24T06:51:10;8.15;;;7.00;;
12005;SDS011;6062;47.294;12.182;2023-03-24T06:53:36;8.23;;;6.80;;
12005;SDS011;6062;47.294;12.182;2023-03-24T06:56:05;8.23;;;6.65;;
12005;SDS011;6062;47.294;12.182;2023-03-24T06:58:31;10.95;;;7.45;;
12005;SDS011;6062;47.294;12.182;2023-03-24T07:00:59;8.45;;;6.75;;
12005;SDS011;6062;47.294;12.182;2023-03-24T07:03:25;8.88;;;6.47;;
12005;SDS011;6062;47.294;12.182;2023-03-24T07:05:51;7.20;;;5.88;;
12005;SDS011;6062;47.294;12.182;2023-03-24T07:08:17;8.85;;;6.88;;
12005;SDS011;6062;47.294;12.182;2023-03-24T07:10:43;8.38;;;6.60;;
12005;SDS011;6062;47.294;12.182;2023-03-24T07:13:09;8.45;;;7.10;;
12005;SDS011;6062;47.294;12.182;2023-03-24T07:15:35;7.40;;;6.07;;
12005;SDS011;6062;47.294;12.182;2023-03-24T07:18:01;9.20;;;6.80;;
12005;SDS011;6062;47.294;12.182;2023-03-24T07:20:27;8.27;;;6.47;;
12005;SDS011;6062;47.294;12.182;2023-03-24T07:22:56;8.82;;;6.00;;
12005;SDS011;6062;47.294;12.182;2023-03-24T07:25:23;7.38;;;6.10;;
12005;SDS011;6062;47.294;12.182;2023-03-24T07:27:52;7.43;;;6.05;;
12005;SDS011;6062;47.294;12.182;2023-03-24T07:30:22;8.48;;;6.35;;
12005;SDS011;6062;47.294;12.182;2023-03-24T07:32:49;9.75;;;6.88;;
12005;SDS011;6062;47.294;12.182;2023-03-24T07:35:16;7.15;;;5.85;;
12005;SDS011;6062;47.294;12.182;2023-03-24T07:37:42;8.98;;;6.80;;
12005;SDS011;6062;47.294;12.182;2023-03-24T07:40:08;8.02;;;6.32;;
12005;SDS011;6062;47.294;12.182;2023-03-24T07:42:41;11.73;;;6.30;;
12005;SDS011;6062;47.294;12.182;2023-03-24T07:45:08;7.30;;;5.88;;
12005;SDS011;6062;47.294;12.182;2023-03-24T07:47:36;6.53;;;5.10;;
12005;SDS011;6062;47.294;12.182;2023-03-24T07:50:03;8.85;;;6.60;;
12005;SDS011;6062;47.294;12.182;2023-03-24T07:52:36;8.02;;;5.90;;
12005;SDS011;6062;47.294;12.182;2023-03-24T07:55:04;7.35;;;6.20;;
12005;SDS011;6062;47.294;12.182;2023-03-24T07:57:36;8.80;;;6.28;;
12005;SDS011;6062;47.294;12.182;2023-03-24T08:00:05;9.73;;;6.35;;
12005;SDS011;6062;47.294;12.182;2023-03-24T08:02:42;7.05;;;5.97;;
12005;SDS011;6062;47.294;12.182;2023-03-24T08:05:11;7.00;;;5.53;;
12005;SDS011;6062;47.294;12.182;2023-03-24T08:07:42;5.32;;;4.82;;
12005;SDS011;6062;47.294;12.182;2023-03-24T08:10:14;6.75;;;5.57;;
12005;SDS011;6062;47.294;12.182;2023-03-24T08:12:40;6.28;;;5.32;;
12005;SDS011;6062;47.294;12.182;2023-03-24T08:15:07;6.63;;;5.43;;
12005;SDS011;6062;47.294;12.182;2023-03-24T08:17:34;7.18;;;5.00;;
12005;SDS011;6062;47.294;12.182;2023-03-24T08:20:00;6.05;;;5.07;;
12005;SDS011;6062;47.294;12.182;2023-03-24T08:22:32;6.82;;;4.57;;
12005;SDS011;6062;47.294;12.182;2023-03-24T08:24:57;6.15;;;5.10;;
12005;SDS011;6062;47.294;12.182;2023-03-24T08:27:23;5.88;;;4.82;;
12005;SDS011;6062;47.294;12.182;2023-03-24T08:29:49;5.75;;;4.72;;
12005;SDS011;6062;47.294;12.182;2023-03-24T08:32:15;7.13;;;4.90;;
12005;SDS011;6062;47.294;12.182;2023-03-24T08:34:40;5.35;;;4.38;;
12005;SDS011;6062;47.294;12.182;2023-03-24T08:37:06;6.68;;;4.70;;
12005;SDS011;6062;47.294;12.182;2023-03-24T08:39:34;5.32;;;4.35;;
12005;SDS011;6062;47.294;12.182;2023-03-24T08:42:00;5.68;;;4.60;;
12005;SDS011;6062;47.294;12.182;2023-03-24T08:44:26;5.80;;;4.25;;
12005;SDS011;6062;47.294;12.182;2023-03-24T08:46:52;4.85;;;4.32;;
12005;SDS011;6062;47.294;12.182;2023-03-24T08:49:17;4.90;;;4.10;;
12005;SDS011;6062;47.294;12.182;2023-03-24T08:51:43;4.68;;;3.85;;
12005;SDS011;6062;47.294;12.182;2023-03-24T08:54:10;5.18;;;4.05;;
12005;SDS011;6062;47.294;12.182;2023-03-24T08:56:37;5.30;;;4.40;;
12005;SDS011;6062;47.294;12.182;2023-03-24T08:59:03;6.57;;;4.07;;
12005;SDS011;6062;47.294;12.182;2023-03-24T09:01:30;5.18;;;4.15;;
12005;SDS011;6062;47.294;12.182;2023-03-24T09:03:59;4.95;;;3.90;;
12005;SDS011;6062;47.294;12.182;2023-03-24T09:06:24;4.72;;;4.03;;
12005;SDS011;6062;47.294;12.182;2023-03-24T09:08:51;4.50;;;4.10;;
12005;SDS011;6062;47.294;12.182;2023-03-24T09:11:20;5.32;;;4.40;;
12005;SDS011;6062;47.294;12.182;2023-03-24T09:13:46;3.63;;;3.33;;
12005;SDS011;6062;47.294;12.182;2023-03-24T09:16:13;4.53;;;3.97;;
12005;SDS011;6062;47.294;12.182;2023-03-24T09:18:39;5.03;;;4.30;;
12005;SDS011;6062;47.294;12.182;2023-03-24T09:21:06;5.65;;;3.40;;
12005;SDS011;6062;47.294;12.182;2023-03-24T09:23:32;5.60;;;4.43;;
12005;SDS011;6062;47.294;12.182;2023-03-24T09:25:59;5.00;;;3.80;;
12005;SDS011;6062;47.294;12.182;2023-03-24T09:28:26;6.82;;;3.40;;
12005;SDS011;6062;47.294;12.182;2023-03-24T09:30:59;4.43;;;3.67;;
12005;SDS011;6062;47.294;12.182;2023-03-24T09:33:28;5.68;;;4.15;;
12005;SDS011;6062;47.294;12.182;2023-03-24T09:35:56;4.40;;;3.58;;
12005;SDS011;6062;47.294;12.182;2023-03-24T09:38:24;4.05;;;3.35;;
12005;SDS011;6062;47.294;12.182;2023-03-24T09:40:57;6.72;;;3.47;;
12005;SDS011;6062;47.294;12.182;2023-03-24T09:46:10;3.50;;;3.20;;
12005;SDS011;6062;47.294;12.182;2023-03-24T09:48:56;3.65;;;2.97;;
12005;SDS011;6062;47.294;12.182;2023-03-24T09:51:29;3.20;;;2.70;;
12005;SDS011;6062;47.294;12.182;2023-03-24T09:56:38;5.13;;;3.10;;
12005;SDS011;6062;47.294;12.182;2023-03-24T10:01:38;3.22;;;2.83;;
12005;SDS011;6062;47.294;12.182;2023-03-24T10:04:06;4.47;;;2.92;;
12005;SDS011;6062;47.294;12.182;2023-03-24T10:06:43;3.28;;;2.83;;
12005;SDS011;6062;47.294;12.182;2023-03-24T10:09:21;5.00;;;3.00;;
12005;SDS011;6062;47.294;12.182;2023-03-24T10:11:56;3.03;;;2.65;;
12005;SDS011;6062;47.294;12.182;2023-03-24T10:17:49;5.63;;;3.30;;
12005;SDS011;6062;47.294;12.182;2023-03-24T10:23:21;3.03;;;2.72;;
12005;SDS011;6062;47.294;12.182;2023-03-24T10:31:48;3.22;;;2.88;;
12005;SDS011;6062;47.294;12.182;2023-03-24T10:34:53;4.78;;;3.10;;
12005;SDS011;6062;47.294;12.182;2023-03-24T10:37:24;5.28;;;3.85;;
12005;SDS011;6062;47.294;12.182;2023-03-24T10:39:54;3.70;;;3.33;;
12005;SDS011;6062;47.294;12.182;2023-03-24T10:42:23;7.32;;;5.65;;
12005;SDS011;6062;47.294;12.182;2023-03-24T10:44:53;5.65;;;4.30;;
12005;SDS011;6062;47.294;12.182;2023-03-24T10:47:23;5.10;;;3.85;;
12005;SDS011;6062;47.294;12.182;2023-03-24T10:49:56;5.03;;;4.40;;
12005;SDS011;6062;47.294;12.182;2023-03-24T10:52:33;6.60;;;4.40;;
12005;SDS011;6062;47.294;12.182;2023-03-24T10:55:04;5.22;;;4.20;;
12005;SDS011;6062;47.294;12.182;2023-03-24T10:57:31;5.93;;;4.80;;
12005;SDS011;6062;47.294;12.182;2023-03-24T11:02:42;5.82;;;4.55;;
12005;SDS011;6062;47.294;12.182;2023-03-24T11:05:17;5.70;;;3.92;;
12005;SDS011;6062;47.294;12.182;2023-03-24T11:07:47;6.45;;;4.53;;
12005;SDS011;6062;47.294;12.182;2023-03-24T11:10:25;6.30;;;5.40;;
12005;SDS011;6062;47.294;12.182;2023-03-24T11:12:58;8.70;;;6.70;;
12005;SDS011;6062;47.294;12.182;2023-03-24T11:15:34;7.35;;;5.97;;
12005;SDS011;6062;47.294;12.182;2023-03-24T11:20:40;9.50;;;7.20;;
12005;SDS011;6062;47.294;12.182;2023-03-24T11:25:52;7.70;;;5.18;;
12005;SDS011;6062;47.294;12.182;2023-03-24T11:28:39;5.68;;;4.90;;
12005;SDS011;6062;47.294;12.182;2023-03-24T11:31:11;5.30;;;4.65;;
12005;SDS011;6062;47.294;12.182;2023-03-24T11:33:58;7.70;;;4.90;;
12005;SDS011;6062;47.294;12.182;2023-03-24T11:36:41;6.50;;;5.80;;
12005;SDS011;6062;47.294;12.182;2023-03-24T11:42:31;5.43;;;4.80;;
12005;SDS011;6062;47.294;12.182;2023-03-24T11:44:49;6.05;;;5.10;;
12005;SDS011;6062;47.294;12.182;2023-03-24T11:52:49;7.75;;;5.22;;
12005;SDS011;6062;47.294;12.182;2023-03-24T12:10:27;6.43;;;5.28;;
12005;SDS011;6062;47.294;12.182;2023-03-24T12:13:32;6.10;;;4.90;;
12005;SDS011;6062;47.294;12.182;2023-03-24T12:16:06;6.22;;;5.10;;
12005;SDS011;6062;47.294;12.182;2023-03-24T12:19:13;6.35;;;4.90;;
12005;SDS011;6062;47.294;12.182;2023-03-24T12:22:21;5.07;;;4.50;;
12005;SDS011;6062;47.294;12.182;2023-03-24T12:28:11;5.63;;;4.28;;
12005;SDS011;6062;47.294;12.182;2023-03-24T12:31:14;5.45;;;4.80;;
12005;SDS011;6062;47.294;12.182;2023-03-24T12:34:31;5.55;;;4.30;;
12005;SDS011;6062;47.294;12.182;2023-03-24T12:37:02;5.28;;;4.53;;
12005;SDS011;6062;47.294;12.182;2023-03-24T12:40:24;6.70;;;4.60;;
12005;SDS011;6062;47.294;12.182;2023-03-24T12:46:03;5.15;;;4.45;;
12005;SDS011;6062;47.294;12.182;2023-03-24T12:55:15;5.05;;;4.18;;
12005;SDS011;6062;47.294;12.182;2023-03-24T12:58:09;5.20;;;4.43;;
12005;SDS011;6062;47.294;12.182;2023-03-24T13:00:57;4.80;;;4.30;;
12005;SDS011;6062;47.294;12.182;2023-03-24T13:04:32;4.78;;;4.00;;
12005;SDS011;6062;47.294;12.182;2023-03-24T13:07:12;4.93;;;4.32;;
12005;SDS011;6062;47.294;12.182;2023-03-24T13:09:59;6.53;;;4.90;;
12005;SDS011;6062;47.294;12.182;2023-03-24T13:12:57;4.90;;;4.18;;
12005;SDS011;6062;47.294;12.182;2023-03-24T13:15:42;7.13;;;6.20;;
12005;SDS011;6062;47.294;12.182;2023-03-24T13:18:38;6.13;;;5.05;;
12005;SDS011;6062;47.294;12.182;2023-03-24T13:21:15;6.45;;;4.80;;
12005;SDS011;6062;47.294;12.182;2023-03-24T13:24:05;6.55;;;5.20;;
12005;SDS011;6062;47.294;12.182;2023-03-24T13:26:39;5.82;;;5.10;;
12005;SDS011;6062;47.294;12.182;2023-03-24T13:37:51;6.25;;;5.25;;
12005;SDS011;6062;47.294;12.182;2023-03-24T13:40:38;5.88;;;5.00;;
12005;SDS011;6062;47.294;12.182;2023-03-24T13:45:57;5.03;;;4.53;;
12005;SDS011;6062;47.294;12.182;2023-03-24T13:48:39;5.82;;;4.78;;
12005;SDS011;6062;47.294;12.182;2023-03-24T13:56:41;5.32;;;4.38;;
12005;SDS011;6062;47.294;12.182;2023-03-24T13:59:40;5.15;;;4.30;;
12005;SDS011;6062;47.294;12.182;2023-03-24T14:08:08;5.82;;;4.82;;
12005;SDS011;6062;47.294;12.182;2023-03-24T14:10:49;5.10;;;4.28;;
12005;SDS011;6062;47.294;12.182;2023-03-24T14:15:48;5.93;;;4.80;;
12005;SDS011;6062;47.294;12.182;2023-03-24T14:29:01;6.25;;;5.65;;
12005;SDS011;6062;47.294;12.182;2023-03-24T14:31:31;5.43;;;4.57;;
12005;SDS011;6062;47.294;12.182;2023-03-24T14:34:18;4.72;;;4.22;;
12005;SDS011;6062;47.294;12.182;2023-03-24T14:36:56;5.35;;;4.47;;
12005;SDS011;6062;47.294;12.182;2023-03-24T14:39:33;5.25;;;4.75;;
12005;SDS011;6062;47.294;12.182;2023-03-24T14:45:03;5.72;;;4.75;;
12005;SDS011;6062;47.294;12.182;2023-03-24T14:47:35;5.00;;;4.40;;
12005;SDS011;6062;47.294;12.182;2023-03-24T14:50:19;6.53;;;4.60;;
12005;SDS011;6062;47.294;12.182;2023-03-24T14:52:53;4.72;;;4.25;;
12005;SDS011;6062;47.294;12.182;2023-03-24T14:55:24;4.72;;;4.22;;
12005;SDS011;6062;47.294;12.182;2023-03-24T14:57:56;4.90;;;4.40;;
12005;SDS011;6062;47.294;12.182;2023-03-24T15:00:43;5.00;;;4.47;;
12005;SDS011;6062;47.294;12.182;2023-03-24T15:06:14;6.30;;;4.82;;
12005;SDS011;6062;47.294;12.182;2023-03-24T15:08:43;6.15;;;4.40;;
12005;SDS011;6062;47.294;12.182;2023-03-24T15:11:14;5.20;;;4.70;;
12005;SDS011;6062;47.294;12.182;2023-03-24T15:13:52;5.18;;;4.65;;
12005;SDS011;6062;47.294;12.182;2023-03-24T15:23:59;4.75;;;4.28;;
12005;SDS011;6062;47.294;12.182;2023-03-24T15:26:28;4.88;;;4.28;;
12005;SDS011;6062;47.294;12.182;2023-03-24T15:28:57;5.00;;;4.50;;
12005;SDS011;6062;47.294;12.182;2023-03-24T15:31:30;5.22;;;4.55;;
12005;SDS011;6062;47.294;12.182;2023-03-24T15:34:04;6.18;;;4.60;;
12005;SDS011;6062;47.294;12.182;2023-03-24T15:36:55;6.78;;;5.20;;
12005;SDS011;6062;47.294;12.182;2023-03-24T15:39:35;6.57;;;5.38;;
12005;SDS011;6062;47.294;12.182;2023-03-24T15:42:04;6.05;;;5.15;;
12005;SDS011;6062;47.294;12.182;2023-03-24T15:44:41;6.35;;;5.47;;
12005;SDS011;6062;47.294;12.182;2023-03-24T15:47:26;5.88;;;5.28;;
12005;SDS011;6062;47.294;12.182;2023-03-24T15:49:59;5.38;;;4.47;;
12005;SDS011;6062;47.294;12.182;2023-03-24T15:52:31;5.68;;;5.07;;
12005;SDS011;6062;47.294;12.182;2023-03-24T15:55:15;6.88;;;5.38;;
12005;SDS011;6062;47.294;12.182;2023-03-24T16:00:58;6.72;;;5.75;;
12005;SDS011;6062;47.294;12.182;2023-03-24T16:03:28;7.57;;;6.25;;
12005;SDS011;6062;47.294;12.182;2023-03-24T16:05:55;7.07;;;5.90;;
12005;SDS011;6062;47.294;12.182;2023-03-24T16:08:30;7.70;;;6.05;;
12005;SDS011;6062;47.294;12.182;2023-03-24T16:11:13;7.13;;;5.68;;
12005;SDS011;6062;47.294;12.182;2023-03-24T16:13:41;7.97;;;6.15;;
12005;SDS011;6062;47.294;12.182;2023-03-24T16:18:48;8.57;;;6.10;;
12005;SDS011;6062;47.294;12.182;2023-03-24T16:23:43;9.02;;;6.70;;
12005;SDS011;6062;47.294;12.182;2023-03-24T16:26:13;7.15;;;5.40;;
12005;SDS011;6062;47.294;12.182;2023-03-24T16:28:49;5.63;;;5.00;;
12005;SDS011;6062;47.294;12.182;2023-03-24T16:31:23;7.72;;;5.90;;
12005;SDS011;6062;47.294;12.182;2023-03-24T16:33:54;6.68;;;5.65;;
12005;SDS011;6062;47.294;12.182;2023-03-24T16:36:21;7.03;;;6.30;;
12005;SDS011;6062;47.294;12.182;2023-03-24T16:38:50;6.53;;;4.88;;
12005;SDS011;6062;47.294;12.182;2023-03-24T16:41:17;6.68;;;5.20;;
12005;SDS011;6062;47.294;12.182;2023-03-24T16:43:44;6.57;;;5.03;;
12005;SDS011;6062;47.294;12.182;2023-03-24T16:46:13;7.43;;;5.10;;
12005;SDS011;6062;47.294;12.182;2023-03-24T16:48:55;5.75;;;5.07;;
12005;SDS011;6062;47.294;12.182;2023-03-24T16:51:21;7.35;;;5.90;;
12005;SDS011;6062;47.294;12.182;2023-03-24T16:53:48;7.50;;;5.13;;
12005;SDS011;6062;47.294;12.182;2023-03-24T16:56:23;5.50;;;4.65;;
12005;SDS011;6062;47.294;12.182;2023-03-24T16:58:50;5.22;;;3.90;;
12005;SDS011;6062;47.294;12.182;2023-03-24T17:03:55;7.03;;;5.82;;
12005;SDS011;6062;47.294;12.182;2023-03-24T17:06:45;13.63;;;6.50;;
12005;SDS011;6062;47.294;12.182;2023-03-24T17:09:19;7.20;;;6.13;;
12005;SDS011;6062;47.294;12.182;2023-03-24T17:11:46;7.28;;;6.07;;
12005;SDS011;6062;47.294;12.182;2023-03-24T17:14:16;53.65;;;9.50;;
12005;SDS011;6062;47.294;12.182;2023-03-24T17:16:43;45.08;;;6.22;;
12005;SDS011;6062;47.294;12.182;2023-03-24T17:19:14;374.48;;;15.60;;
12005;SDS011;6062;47.294;12.182;2023-03-24T17:21:49;311.77;;;11.32;;
12005;SDS011;6062;47.294;12.182;2023-03-24T17:24:27;134.02;;;5.25;;
12005;SDS011;6062;47.294;12.182;2023-03-24T17:26:59;510.35;;;15.40;;
12005;SDS011;6062;47.294;12.182;2023-03-24T17:29:27;57.38;;;2.47;;
12005;SDS011;6062;47.294;12.182;2023-03-24T17:31:53;111.28;;;4.63;;
12005;SDS011;6062;47.294;12.182;2023-03-24T17:34:18;226.10;;;6.68;;
12005;SDS011;6062;47.294;12.182;2023-03-24T17:36:44;45.72;;;2.53;;
12005;SDS011;6062;47.294;12.182;2023-03-24T17:39:13;18.98;;;1.80;;
12005;SDS011;6062;47.294;12.182;2023-03-24T17:41:41;42.00;;;2.70;;
12005;SDS011;6062;47.294;12.182;2023-03-24T17:44:07;76.55;;;2.90;;
12005;SDS011;6062;47.294;12.182;2023-03-24T17:46:33;48.65;;;1.88;;
12005;SDS011;6062;47.294;12.182;2023-03-24T17:48:59;32.20;;;2.10;;
12005;SDS011;6062;47.294;12.182;2023-03-24T17:51:25;37.63;;;2.55;;
12005;SDS011;6062;47.294;12.182;2023-03-24T17:53:52;18.67;;;1.27;;
12005;SDS011;6062;47.294;12.182;2023-03-24T17:56:17;1.40;;;0.68;;
12005;SDS011;6062;47.294;12.182;2023-03-24T17:58:44;28.02;;;1.30;;
12005;SDS011;6062;47.294;12.182;2023-03-24T18:01:11;17.70;;;1.23;;
12005;SDS011;6062;47.294;12.182;2023-03-24T18:03:42;7.03;;;0.50;;
12005;SDS011;6062;47.294;12.182;2023-03-24T18:06:09;0.30;;;0.30;;